Flugplatz Dankern

DE-0195 · Niedersachsen, Alemania

3 de octubre de 2022

Hora Código Tiempo Temp. Visibilidad Cielo nuboso Viento METAR/SPECI
22:20
L
11 °C 0 m - 230° 230° 2 kt METAR ETWM 032020Z AUTO 23002KT //// // ////// 11/10 Q1024 ///
21:20
L
10 °C 0 m - 230° 230° 1 kt METAR ETWM 031920Z AUTO 23001KT //// // ////// 10/10 Q1024 ///
20:20
L
11 °C 0 m - Var 000° 0 kt METAR ETWM 031820Z AUTO 00000KT //// // ////// 11/10 Q1024 ///
19:20
L
13 °C 0 m - 240° 240° 1 kt METAR ETWM 031720Z AUTO 24001KT //// // ////// 13/11 Q1024 ///
18:20
L
15 °C 0 m - 270° 270° 2 kt METAR ETWM 031620Z AUTO 27002KT //// // ////// 15/11 Q1025 ///
17:20
L
16 °C 0 m - Var Var 3 kt METAR ETWM 031520Z AUTO VRB03KT //// // ////// 16/10 Q1025 ///
16:20
L
17 °C 0 m - 270° 270° 3 kt METAR ETWM 031420Z AUTO 27003KT //// // ////// 17/10 Q1025 ///
15:20
L
17 °C 0 m - 290° 290° 3 kt METAR ETWM 031320Z AUTO 29003KT //// // ////// 17/09 Q1026 ///
14:20
L
17 °C 0 m - 280° 280° 5 kt METAR ETWM 031220Z AUTO 28005KT //// // ////// 17/08 Q1026 ///
13:20
L
16 °C 0 m - 240° 240° 7 kt METAR ETWM 031120Z AUTO 24007KT //// // ////// 16/09 Q1026 ///
12:20
L
16 °C 0 m - 250° 250° 4 kt METAR ETWM 031020Z AUTO 25004KT //// // ////// 16/10 Q1026 ///
11:20
L
15 °C 0 m - 260° 260° 3 kt METAR ETWM 030920Z AUTO 26003KT //// // ////// 15/10 Q1026 ///
10:20
L
12 °C 0 m - 250° 250° 5 kt METAR ETWM 030820Z AUTO 25005KT //// // ////// 12/10 Q1026 ///
09:20
L
10 °C 0 m - 240° 240° 4 kt METAR ETWM 030720Z AUTO 24004KT //// // ////// 10/10 Q1026 ///
08:20
L
8 °C 0 m - 250° 250° 3 kt METAR ETWM 030620Z AUTO 25003KT //// // ////// 08/08 Q1025 ///
07:20
L
8 °C 0 m - 240° 240° 2 kt METAR ETWM 030520Z AUTO 24002KT //// // ////// 08/07 Q1025 ///
06:20
L
8 °C 0 m - Var Var 3 kt METAR ETWM 030420Z AUTO VRB03KT //// // ////// 08/08 Q1024 ///
05:20
L
9 °C 0 m - Var Var 3 kt METAR ETWM 030320Z AUTO VRB03KT //// // ////// 09/09 Q1024 ///
04:20
L
8 °C 0 m - 250° 250° 3 kt METAR ETWM 030220Z AUTO 25003KT //// // ////// 08/08 Q1024 ///
03:20
L
9 °C 0 m - 260° 260° 3 kt METAR ETWM 030120Z AUTO 26003KT //// // ////// 09/09 Q1024 ///
02:20
L
9 °C 0 m - Var Var 3 kt METAR ETWM 030020Z AUTO VRB03KT //// // ////// 09/08 Q1023 ///
01:20
L
9 °C 0 m - Var Var 3 kt METAR ETWM 022320Z AUTO VRB03KT //// // ////// 09/09 Q1023 ///
00:20
L
9 °C 0 m - Var Var 3 kt METAR ETWM 022220Z AUTO VRB03KT //// // ////// 09/09 Q1022 ///

2 de octubre de 2022

Hora Código Tiempo Temp. Visibilidad Cielo nuboso Viento METAR/SPECI
23:20
L
9 °C 0 m - Var Var 3 kt METAR ETWM 022120Z AUTO VRB03KT //// // ////// 09/09 Q1022 ///
22:20
L
10 °C 0 m - 250° 250° 2 kt METAR ETWM 022020Z AUTO 25002KT //// // ////// 10/09 Q1021 ///
21:20
L
11 °C 0 m - Var Var 2 kt METAR ETWM 021920Z AUTO VRB02KT //// // ////// 11/09 Q1021 ///
20:20
L
13 °C 0 m - 280° 280° 3 kt METAR ETWM 021820Z AUTO 28003KT //// // ////// 13/09 Q1020 ///
19:20
L
14 °C 0 m - 280° 280° 4 kt METAR ETWM 021720Z AUTO 28004KT //// // ////// 14/09 Q1019 ///
18:20
L
15 °C 0 m - 280° 280° 6 kt METAR ETWM 021620Z AUTO 28006KT //// // ////// 15/09 Q1018 ///
17:20
L
17 °C 0 m - 300° 300° 6 kt METAR ETWM 021520Z AUTO 30006KT //// // ////// 17/09 Q1017 ///
16:20
L
17 °C 0 m - 280° 280° 9 - 19 kt METAR ETWM 021420Z AUTO 28009G19KT //// // ////// 17/09 Q1017 ///
15:20
L
16 °C 0 m - 280° 280° 7 - 17 kt METAR ETWM 021320Z AUTO 28007G17KT //// // ////// 16/10 Q1016 ///
14:20
L
15 °C 0 m - 280° 280° 5 kt METAR ETWM 021220Z AUTO 28005KT //// // ////// 15/12 Q1016 ///
13:20
L
14 °C 0 m - 300° 300° 3 kt METAR ETWM 021120Z AUTO 30003KT //// // ////// 14/12 Q1016 ///
12:20
L
16 °C 0 m - 290° 290° 8 kt METAR ETWM 021020Z AUTO 29008KT //// // ////// 16/10 Q1015 ///
11:20
L
16 °C 0 m - 260° 260° 8 kt METAR ETWM 020920Z AUTO 26008KT //// // ////// 16/11 Q1015 ///
10:20
L
15 °C 0 m - 250° 250° 4 kt METAR ETWM 020820Z AUTO 25004KT //// // ////// 15/11 Q1014 ///
09:20
L
13 °C 0 m - 220° 220° 5 kt METAR ETWM 020720Z AUTO 22005KT //// // ////// 13/11 Q1013 ///
08:20
L
11 °C 0 m - 230° 230° 4 kt METAR ETWM 020620Z AUTO 23004KT //// // ////// 11/10 Q1013 ///
07:20
L
11 °C 0 m - 220° 220° 5 kt METAR ETWM 020520Z AUTO 22005KT //// // ////// 11/10 Q1012 ///
06:20
L
11 °C 0 m - 210° 210° 5 kt METAR ETWM 020420Z AUTO 21005KT //// // ////// 11/10 Q1012 ///
05:20
L
12 °C 0 m - 220° 220° 5 kt METAR ETWM 020320Z AUTO 22005KT //// // ////// 12/10 Q1012 ///
04:20
L
12 °C 0 m - 220° 220° 5 kt METAR ETWM 020220Z AUTO 22005KT //// // ////// 12/11 Q1012 ///
03:20
L
11 °C 0 m - 220° 220° 4 kt METAR ETWM 020120Z AUTO 22004KT //// // ////// 11/10 Q1012 ///
02:20
L
11 °C 0 m - 200° 200° 4 kt METAR ETWM 020020Z AUTO 20004KT //// // ////// 11/10 Q1011 ///
01:20
L
11 °C 0 m - 220° 220° 4 kt METAR ETWM 012320Z AUTO 22004KT //// // ////// 11/10 Q1011 ///
00:20
L
11 °C 0 m - Var Var 3 kt METAR ETWM 012220Z AUTO VRB03KT //// // ////// 11/09 Q1010 ///

1 de octubre de 2022

Hora Código Tiempo Temp. Visibilidad Cielo nuboso Viento METAR/SPECI
23:20
L
11 °C 0 m - 220° 220° 5 kt METAR ETWM 012120Z AUTO 22005KT //// // ////// 11/10 Q1010 ///
22:20
L
11 °C 0 m - 220° 220° 5 kt METAR ETWM 012020Z AUTO 22005KT //// // ////// 11/10 Q1010 ///
21:20
L
12 °C 0 m - 230° 230° 4 kt METAR ETWM 011920Z AUTO 23004KT //// // ////// 12/10 Q1009 ///
20:20
L
12 °C 0 m - 230° 230° 4 kt METAR ETWM 011820Z AUTO 23004KT //// // ////// 12/10 Q1008 ///
19:20
L
13 °C 0 m - 240° 240° 4 kt METAR ETWM 011720Z AUTO 24004KT //// // ////// 13/11 Q1007 ///
18:20
L
14 °C 0 m - 250° 250° 6 kt METAR ETWM 011620Z AUTO 25006KT //// // ////// 14/11 Q1006 ///
17:20
L
14 °C 0 m - 260° 260° 5 kt METAR ETWM 011520Z AUTO 26005KT //// // ////// 14/11 Q1005 ///
Datos más antiguos

Nosotros y terceros seguimos tu comportamiento en Internet en nuestro sitio web con cookies. Si continúas, asumimos que estás de acuerdo con nuestra política de cookies. Más información